createdAt,value
2022-10-18T00:01:34.591Z,7.86
2022-10-18T00:04:03.061Z,7.77
2022-10-18T00:06:32.660Z,7.76
2022-10-18T00:09:00.748Z,7.68
2022-10-18T00:11:31.091Z,7.64
2022-10-18T00:13:59.843Z,7.55
2022-10-18T00:16:30.637Z,7.55
2022-10-18T00:18:58.582Z,7.51
2022-10-18T00:21:28.461Z,7.51
2022-10-18T00:23:57.378Z,7.53
2022-10-18T00:26:37.045Z,7.50
2022-10-18T00:29:13.058Z,7.51
2022-10-18T00:31:49.428Z,7.55
2022-10-18T00:34:17.644Z,7.47
2022-10-18T00:36:46.068Z,7.49
2022-10-18T00:39:21.039Z,7.49
2022-10-18T00:41:51.567Z,7.51
2022-10-18T00:44:25.353Z,7.44
2022-10-18T00:47:03.561Z,7.39
2022-10-18T00:49:42.955Z,7.37
2022-10-18T00:52:34.397Z,7.37
2022-10-18T00:55:08.262Z,7.31
2022-10-18T00:57:39.922Z,7.25
2022-10-18T01:00:10.201Z,7.21
2022-10-18T01:02:47.045Z,7.26
2022-10-18T01:05:20.111Z,7.20
2022-10-18T01:08:26.266Z,7.22
2022-10-18T01:11:33.896Z,7.10
2022-10-18T01:14:44.468Z,7.07
2022-10-18T01:17:32.810Z,7.02
2022-10-18T01:20:34.410Z,7.09
2022-10-18T01:23:18.146Z,7.05
2022-10-18T01:26:26.857Z,7.01
2022-10-18T01:29:14.265Z,7.03
2022-10-18T01:31:55.238Z,7.02
2022-10-18T01:34:31.711Z,7.02
2022-10-18T01:37:14.299Z,7.09
2022-10-18T01:39:48.064Z,7.18
2022-10-18T01:42:21.656Z,7.19
2022-10-18T01:44:53.046Z,7.26
2022-10-18T01:47:22.579Z,7.27
2022-10-18T01:50:09.281Z,7.31
2022-10-18T01:52:52.575Z,7.36
2022-10-18T01:55:35.992Z,7.36
2022-10-18T01:58:17.026Z,7.32
2022-10-18T02:00:55.899Z,7.36
2022-10-18T02:03:27.473Z,7.37
2022-10-18T02:06:23.477Z,7.41
2022-10-18T02:08:59.715Z,7.35
2022-10-18T02:11:31.504Z,7.35
2022-10-18T02:14:15.849Z,7.34
2022-10-18T02:17:02.243Z,7.34
2022-10-18T02:19:39.121Z,7.35
2022-10-18T02:22:12.025Z,7.31
2022-10-18T02:24:53.994Z,7.26
2022-10-18T02:27:23.499Z,7.19
2022-10-18T02:29:53.433Z,7.16
2022-10-18T02:32:39.729Z,7.23
2022-10-18T02:35:36.249Z,7.28
2022-10-18T02:38:19.093Z,7.25
2022-10-18T02:40:48.966Z,7.24
2022-10-18T02:43:19.317Z,7.22
2022-10-18T02:45:52.139Z,7.23
2022-10-18T02:48:20.825Z,7.26
2022-10-18T02:50:50.596Z,7.26
2022-10-18T02:53:18.272Z,7.21
2022-10-18T02:55:47.161Z,7.19
2022-10-18T02:58:15.429Z,7.21
2022-10-18T03:00:43.520Z,7.16
2022-10-18T03:03:12.509Z,7.11
2022-10-18T03:05:40.493Z,7.06
2022-10-18T03:08:10.401Z,6.97
2022-10-18T03:10:40.527Z,7.02
2022-10-18T03:13:10.773Z,6.96
2022-10-18T03:15:40.603Z,6.89
2022-10-18T03:18:08.616Z,6.83
2022-10-18T03:20:37.291Z,6.65
2022-10-18T03:23:05.747Z,6.58
2022-10-18T03:25:35.533Z,6.55
2022-10-18T03:28:04.445Z,6.50
2022-10-18T03:30:32.627Z,6.50
2022-10-18T03:33:03.289Z,6.53
2022-10-18T03:35:32.564Z,6.47
2022-10-18T03:38:01.590Z,6.45
2022-10-18T03:42:59.591Z,6.34
2022-10-18T03:45:30.498Z,6.27
2022-10-18T03:48:01.721Z,6.18
2022-10-18T03:50:30.465Z,6.26
2022-10-18T03:52:58.731Z,6.37
2022-10-18T03:55:27.975Z,6.27
2022-10-18T03:57:56.504Z,6.39
2022-10-18T04:00:29.185Z,6.39
2022-10-18T04:02:58.242Z,6.51
2022-10-18T04:05:29.142Z,6.60
2022-10-18T04:07:58.842Z,6.63
2022-10-18T04:10:27.591Z,6.68
2022-10-18T04:12:56.920Z,6.74
2022-10-18T04:15:25.987Z,6.80
2022-10-18T04:17:59.778Z,6.87
2022-10-18T04:20:28.947Z,7.05
2022-10-18T04:22:58.274Z,7.02
2022-10-18T04:25:27.288Z,7.12
2022-10-18T04:27:56.560Z,7.09
2022-10-18T04:30:26.684Z,7.01
2022-10-18T04:32:54.470Z,6.97
2022-10-18T04:35:29.066Z,7.09
2022-10-18T04:37:57.530Z,7.02
2022-10-18T04:40:26.358Z,7.08
2022-10-18T04:42:54.511Z,6.99
2022-10-18T04:45:23.573Z,6.94
2022-10-18T04:47:51.534Z,6.96
2022-10-18T04:50:22.927Z,6.84
2022-10-18T04:55:20.188Z,6.79
2022-10-18T04:57:48.547Z,6.82
2022-10-18T05:00:18.826Z,6.82
2022-10-18T05:02:46.565Z,6.90
2022-10-18T05:05:19.255Z,6.92
2022-10-18T05:07:48.614Z,6.95
2022-10-18T05:10:17.689Z,6.98
2022-10-18T05:12:45.607Z,7.03
2022-10-18T05:15:14.689Z,6.99
2022-10-18T05:17:46.817Z,7.03
2022-10-18T05:20:15.720Z,7.05
2022-10-18T05:22:43.653Z,7.17
2022-10-18T05:25:11.670Z,7.22
2022-10-18T05:27:40.744Z,7.33
2022-10-18T05:30:10.170Z,7.44
2022-10-18T05:32:39.302Z,7.40
2022-10-18T05:35:07.807Z,7.48
2022-10-18T05:37:36.895Z,7.61
2022-10-18T05:40:06.547Z,7.68
2022-10-18T05:42:37.469Z,7.82
2022-10-18T05:45:06.589Z,7.93
2022-10-18T05:47:37.608Z,8.01
2022-10-18T05:50:06.581Z,8.10
2022-10-18T05:52:40.113Z,8.25
2022-10-18T05:55:09.569Z,8.30
2022-10-18T05:57:40.186Z,8.37
2022-10-18T06:00:10.838Z,8.43
2022-10-18T06:02:40.174Z,8.62
2022-10-18T06:05:09.678Z,8.81
2022-10-18T06:07:39.854Z,8.84
2022-10-18T06:10:08.929Z,9.02
2022-10-18T06:12:37.557Z,9.04
2022-10-18T06:15:07.089Z,9.22
2022-10-18T06:17:38.469Z,9.42
2022-10-18T06:20:07.714Z,9.61
2022-10-18T06:22:36.501Z,9.80
2022-10-18T06:25:08.937Z,9.94
2022-10-18T06:27:40.202Z,10.10
2022-10-18T06:30:09.730Z,10.22
2022-10-18T06:32:37.468Z,10.27
2022-10-18T06:35:07.413Z,10.46
2022-10-18T06:37:37.149Z,10.61
2022-10-18T06:40:07.764Z,10.81
2022-10-18T06:42:37.079Z,11.01
2022-10-18T06:45:07.186Z,11.18
2022-10-18T06:47:36.044Z,11.31
2022-10-18T06:50:04.754Z,11.48
2022-10-18T06:52:33.759Z,11.65
2022-10-18T06:57:28.574Z,12.11
2022-10-18T06:59:57.407Z,12.09
2022-10-18T07:02:26.068Z,12.35
2022-10-18T07:04:54.386Z,12.56
2022-10-18T07:07:24.658Z,12.83
2022-10-18T07:09:52.401Z,12.87
2022-10-18T07:12:21.290Z,13.14
2022-10-18T07:14:53.922Z,13.25
2022-10-18T07:17:23.443Z,13.46
2022-10-18T07:19:52.606Z,13.62
2022-10-18T07:22:21.352Z,13.75
2022-10-18T07:24:49.408Z,13.85
2022-10-18T07:27:20.494Z,14.12
2022-10-18T07:29:49.863Z,14.23
2022-10-18T07:32:18.743Z,14.37
2022-10-18T07:34:46.295Z,14.55
2022-10-18T07:37:14.412Z,14.60
2022-10-18T07:39:43.409Z,14.81
2022-10-18T07:42:11.390Z,14.85
2022-10-18T07:44:41.362Z,15.01
2022-10-18T07:47:11.192Z,15.28
2022-10-18T07:49:41.339Z,15.35
2022-10-18T07:52:14.935Z,15.48
2022-10-18T07:54:43.343Z,15.58
2022-10-18T07:57:12.456Z,15.74
2022-10-18T07:59:41.347Z,15.89
2022-10-18T08:02:12.941Z,16.12
2022-10-18T08:04:44.850Z,16.22
2022-10-18T08:07:15.687Z,16.24
2022-10-18T08:09:46.747Z,16.50
2022-10-18T08:12:17.379Z,16.73
2022-10-18T08:14:47.262Z,16.87
2022-10-18T08:17:20.310Z,17.13
2022-10-18T08:19:58.575Z,17.18
2022-10-18T08:22:37.345Z,17.23
2022-10-18T08:25:05.737Z,17.26
2022-10-18T08:27:38.231Z,17.28
2022-10-18T08:30:06.974Z,17.63
2022-10-18T08:32:37.508Z,17.58
2022-10-18T08:35:08.527Z,17.95
2022-10-18T08:37:38.746Z,18.03
2022-10-18T08:40:08.254Z,18.05
2022-10-18T08:42:53.515Z,18.16
2022-10-18T08:45:40.945Z,18.17
2022-10-18T08:48:42.459Z,18.36
2022-10-18T08:51:41.228Z,18.59
2022-10-18T08:54:14.698Z,18.73
2022-10-18T08:56:49.499Z,18.88
2022-10-18T08:59:21.950Z,18.90
2022-10-18T09:02:08.936Z,19.25
2022-10-18T09:05:00.750Z,19.26
2022-10-18T09:08:09.877Z,19.44
2022-10-18T09:11:09.234Z,19.39
2022-10-18T09:13:59.823Z,19.33
2022-10-18T09:17:04.427Z,19.41
2022-10-18T09:19:38.358Z,19.52
2022-10-18T09:22:33.161Z,19.59
2022-10-18T09:25:17.477Z,19.85
2022-10-18T09:27:52.747Z,20.00
2022-10-18T09:30:59.578Z,19.94
2022-10-18T09:33:39.829Z,19.92
2022-10-18T09:36:20.963Z,19.88
2022-10-18T09:38:58.551Z,19.79
2022-10-18T09:42:11.842Z,19.85
2022-10-18T09:44:47.348Z,20.07
2022-10-18T09:47:21.598Z,19.99
2022-10-18T09:50:46.565Z,20.21
2022-10-18T09:53:20.386Z,20.45
2022-10-18T09:56:17.876Z,20.43
2022-10-18T09:58:49.538Z,20.41
2022-10-18T10:01:28.971Z,20.53
2022-10-18T10:03:58.971Z,20.39
2022-10-18T10:06:28.422Z,20.81
2022-10-18T10:09:05.611Z,20.74
2022-10-18T10:11:38.606Z,20.68
2022-10-18T10:14:27.073Z,20.66
2022-10-18T10:17:20.984Z,20.82
2022-10-18T10:20:05.849Z,20.98
2022-10-18T10:22:40.121Z,20.97
2022-10-18T10:25:23.949Z,21.04
2022-10-18T10:27:55.320Z,21.16
2022-10-18T10:30:35.588Z,21.11
2022-10-18T10:33:06.222Z,20.86
2022-10-18T10:35:52.998Z,20.84
2022-10-18T10:38:27.684Z,20.91
2022-10-18T10:40:57.820Z,20.87
2022-10-18T10:43:43.540Z,20.90
2022-10-18T10:46:19.086Z,20.95
2022-10-18T10:48:47.368Z,20.91
2022-10-18T10:51:29.083Z,20.82
2022-10-18T10:54:20.972Z,20.77
2022-10-18T10:56:56.252Z,20.83
2022-10-18T10:59:26.807Z,21.12
2022-10-18T11:02:33.662Z,21.20
2022-10-18T11:05:30.671Z,21.16
2022-10-18T11:08:18.414Z,20.97
2022-10-18T11:11:18.033Z,20.90
2022-10-18T11:14:26.637Z,20.77
2022-10-18T11:17:11.194Z,20.58
2022-10-18T11:20:22.640Z,20.42
2022-10-18T11:23:05.455Z,20.40
2022-10-18T11:26:10.619Z,20.41
2022-10-18T11:29:02.013Z,20.42
2022-10-18T11:32:04.860Z,20.40
2022-10-18T11:34:57.919Z,20.48
2022-10-18T11:37:44.951Z,20.42
2022-10-18T11:40:50.704Z,20.49
2022-10-18T11:44:02.542Z,20.51
2022-10-18T11:46:51.098Z,20.66
2022-10-18T11:49:37.121Z,20.76
2022-10-18T11:52:28.831Z,20.67
2022-10-18T11:55:32.993Z,20.82
2022-10-18T11:58:49.376Z,20.90
2022-10-18T12:02:12.248Z,20.83
2022-10-18T12:04:58.431Z,20.83
2022-10-18T12:07:45.643Z,20.89
2022-10-18T12:10:26.322Z,20.95
2022-10-18T12:13:17.961Z,21.07
2022-10-18T12:15:48.372Z,21.02
2022-10-18T12:18:22.072Z,21.12
2022-10-18T12:20:58.754Z,21.20
2022-10-18T12:23:45.644Z,21.29
2022-10-18T12:26:15.933Z,21.58
2022-10-18T12:29:02.715Z,21.38
2022-10-18T12:31:52.231Z,21.46
2022-10-18T12:34:51.407Z,21.11
2022-10-18T12:38:01.969Z,21.66
2022-10-18T12:40:56.149Z,22.09
2022-10-18T12:43:37.646Z,22.52
2022-10-18T12:46:13.544Z,23.24
2022-10-18T12:48:50.303Z,23.43
2022-10-18T12:51:22.948Z,23.74
2022-10-18T12:53:56.050Z,23.11
2022-10-18T12:56:33.264Z,23.91
2022-10-18T12:59:17.705Z,24.25
2022-10-18T13:02:01.974Z,24.86
2022-10-18T13:04:36.954Z,24.90
2022-10-18T13:07:22.098Z,24.84
2022-10-18T13:10:17.854Z,25.35
2022-10-18T13:13:38.826Z,25.54
2022-10-18T13:16:47.017Z,26.02
2022-10-18T13:19:40.277Z,25.06
2022-10-18T13:22:59.981Z,24.81
2022-10-18T13:26:16.177Z,24.49
2022-10-18T13:28:51.150Z,24.76
2022-10-18T13:31:44.444Z,24.70
2022-10-18T13:34:22.678Z,24.62
2022-10-18T13:37:25.103Z,24.01
2022-10-18T13:40:39.726Z,23.75
2022-10-18T13:43:48.955Z,22.76
2022-10-18T13:46:34.132Z,22.04
2022-10-18T13:49:39.478Z,21.62
2022-10-18T13:52:41.425Z,20.94
2022-10-18T13:55:40.419Z,20.69
2022-10-18T13:58:41.058Z,20.11
2022-10-18T14:01:53.433Z,20.15
2022-10-18T14:05:25.036Z,19.95
2022-10-18T14:08:10.421Z,19.71
2022-10-18T14:11:02.023Z,19.45
2022-10-18T14:13:47.383Z,19.28
2022-10-18T14:16:49.021Z,19.04
2022-10-18T14:19:52.208Z,18.89
2022-10-18T14:22:31.794Z,18.65
2022-10-18T14:25:03.420Z,18.53
2022-10-18T14:27:33.559Z,18.27
2022-10-18T14:30:31.985Z,18.05
2022-10-18T14:33:00.732Z,18.00
2022-10-18T14:35:36.536Z,17.63
2022-10-18T14:38:14.232Z,17.41
2022-10-18T14:40:43.116Z,17.16
2022-10-18T14:43:15.523Z,16.90
2022-10-18T14:45:46.581Z,16.71
2022-10-18T14:48:18.370Z,16.65
2022-10-18T14:51:00.065Z,16.53
2022-10-18T14:53:39.882Z,16.41
2022-10-18T14:56:20.732Z,16.27
2022-10-18T15:06:21.739Z,15.90
2022-10-18T15:08:55.590Z,15.85
2022-10-18T15:11:25.878Z,15.75
2022-10-18T15:14:08.988Z,15.59
2022-10-18T15:16:41.592Z,15.52
2022-10-18T15:19:18.113Z,15.44
2022-10-18T15:22:19.730Z,15.29
2022-10-18T15:25:27.944Z,15.16
2022-10-18T15:28:02.105Z,14.91
2022-10-18T15:30:43.899Z,14.72
2022-10-18T15:33:24.155Z,14.62
2022-10-18T15:35:54.539Z,14.49
2022-10-18T15:38:32.141Z,14.42
2022-10-18T15:41:01.301Z,14.57
2022-10-18T15:43:31.613Z,14.51
2022-10-18T15:46:06.569Z,14.38
2022-10-18T15:48:38.899Z,14.33
2022-10-18T15:51:29.849Z,14.18
2022-10-18T15:53:57.968Z,14.18
2022-10-18T15:56:37.101Z,14.09
2022-10-18T15:59:31.270Z,13.96
2022-10-18T16:02:01.430Z,13.80
2022-10-18T16:04:33.206Z,13.78
2022-10-18T16:07:01.999Z,13.71
2022-10-18T16:09:31.139Z,13.81
2022-10-18T16:12:02.386Z,13.81
2022-10-18T16:14:32.368Z,13.76
2022-10-18T16:17:05.785Z,13.64
2022-10-18T16:19:38.132Z,13.56
2022-10-18T16:24:44.284Z,13.59
2022-10-18T16:27:12.945Z,13.43
2022-10-18T16:29:44.149Z,13.38
2022-10-18T16:32:11.866Z,13.40
2022-10-18T16:34:40.849Z,13.37
2022-10-18T16:37:11.402Z,13.34
2022-10-18T16:39:40.556Z,13.33
2022-10-18T16:42:08.980Z,13.34
2022-10-18T16:44:36.823Z,13.30
2022-10-18T16:47:07.826Z,13.27
2022-10-18T16:49:38.196Z,13.16
2022-10-18T16:52:11.541Z,13.16
2022-10-18T16:55:00.646Z,13.07
2022-10-18T16:57:31.553Z,13.03
2022-10-18T16:59:59.905Z,13.03
2022-10-18T17:02:28.747Z,13.05
2022-10-18T17:04:56.824Z,12.96
2022-10-18T17:07:25.529Z,12.91
2022-10-18T17:09:55.035Z,12.90
2022-10-18T17:12:23.871Z,12.84
2022-10-18T17:14:52.585Z,12.86
2022-10-18T17:17:23.004Z,12.88
2022-10-18T17:19:52.959Z,12.88
2022-10-18T17:22:20.877Z,12.85
2022-10-18T17:24:51.197Z,12.84
2022-10-18T17:27:20.865Z,12.75
2022-10-18T17:29:50.947Z,12.66
2022-10-18T17:32:21.406Z,12.60
2022-10-18T17:34:50.045Z,12.62
2022-10-18T17:37:19.399Z,12.67
2022-10-18T17:39:47.994Z,12.66
2022-10-18T17:42:17.120Z,12.68
2022-10-18T17:44:48.516Z,12.71
2022-10-18T17:47:21.306Z,12.61
2022-10-18T17:49:50.529Z,12.60
2022-10-18T17:52:19.709Z,12.63
2022-10-18T17:54:48.874Z,12.49
2022-10-18T17:57:17.792Z,12.34
2022-10-18T17:59:48.517Z,12.39
2022-10-18T18:02:20.610Z,12.35
2022-10-18T18:04:49.998Z,12.21
2022-10-18T18:07:21.424Z,12.22
2022-10-18T18:09:49.931Z,12.06
2022-10-18T18:12:19.284Z,12.16
2022-10-18T18:14:48.954Z,12.20
2022-10-18T18:17:24.748Z,12.14
2022-10-18T18:20:04.219Z,12.11
2022-10-18T18:22:52.345Z,12.09
2022-10-18T18:25:22.030Z,12.03
2022-10-18T18:27:49.930Z,11.99
2022-10-18T18:30:18.783Z,11.93
2022-10-18T18:32:46.877Z,11.86
2022-10-18T18:35:15.554Z,11.79
2022-10-18T18:37:45.163Z,11.66
2022-10-18T18:40:13.012Z,11.69
2022-10-18T18:42:42.633Z,11.68
2022-10-18T18:45:11.599Z,11.70
2022-10-18T18:47:43.051Z,11.65
2022-10-18T18:50:11.929Z,11.62
2022-10-18T18:52:41.002Z,11.72
2022-10-18T18:55:09.173Z,11.77
2022-10-18T18:57:40.385Z,11.78
2022-10-18T19:00:13.128Z,11.75
2022-10-18T19:02:45.703Z,11.78
2022-10-18T19:05:14.023Z,11.74
2022-10-18T19:07:42.968Z,11.75
2022-10-18T19:10:11.942Z,11.75
2022-10-18T19:13:02.567Z,11.74
2022-10-18T19:15:31.786Z,11.75
2022-10-18T19:18:02.839Z,11.69
2022-10-18T19:20:33.832Z,11.69
2022-10-18T19:23:02.948Z,11.69
2022-10-18T19:25:31.663Z,11.67
2022-10-18T19:28:02.563Z,11.54
2022-10-18T19:30:31.613Z,11.52
2022-10-18T19:33:04.712Z,11.51
2022-10-18T19:35:35.734Z,11.48
2022-10-18T19:38:03.874Z,11.44
2022-10-18T19:40:33.409Z,11.42
2022-10-18T19:43:01.902Z,11.42
2022-10-18T19:45:31.272Z,11.38
2022-10-18T19:48:00.898Z,11.29
2022-10-18T19:50:29.875Z,11.23
2022-10-18T19:52:57.984Z,11.21
2022-10-18T19:55:27.452Z,11.25
2022-10-18T19:57:57.252Z,11.15
2022-10-18T20:00:29.001Z,11.19
2022-10-18T20:02:59.326Z,11.10
2022-10-18T20:05:28.564Z,11.08
2022-10-18T20:07:56.998Z,11.15
2022-10-18T20:10:27.800Z,11.15
2022-10-18T20:12:58.848Z,11.13
2022-10-18T20:15:29.595Z,11.03
2022-10-18T20:18:02.215Z,11.08
2022-10-18T20:20:31.252Z,11.05
2022-10-18T20:22:59.018Z,10.83
2022-10-18T20:25:28.471Z,10.91
2022-10-18T20:27:57.261Z,10.91
2022-10-18T20:30:27.332Z,10.83
2022-10-18T20:32:56.078Z,10.87
2022-10-18T20:35:25.397Z,10.76
2022-10-18T20:37:57.644Z,10.75
2022-10-18T20:40:25.967Z,10.74
2022-10-18T20:43:02.868Z,10.79
2022-10-18T20:45:31.895Z,10.79
2022-10-18T20:48:00.911Z,10.84
2022-10-18T20:50:28.872Z,10.78
2022-10-18T20:52:58.413Z,10.79
2022-10-18T20:55:29.279Z,10.74
2022-10-18T20:57:58.314Z,10.77
2022-10-18T21:00:27.582Z,10.76
2022-10-18T21:02:58.854Z,10.68
2022-10-18T21:05:32.027Z,10.60
2022-10-18T21:08:00.905Z,10.58
2022-10-18T21:10:30.177Z,10.56
2022-10-18T21:12:58.923Z,10.51
2022-10-18T21:15:28.885Z,10.53
2022-10-18T21:17:58.519Z,10.56
2022-10-18T21:20:29.645Z,10.55
2022-10-18T21:22:58.681Z,10.58
2022-10-18T21:25:26.823Z,10.55
2022-10-18T21:27:55.670Z,10.55
2022-10-18T21:30:23.948Z,10.49
2022-10-18T21:32:55.382Z,10.53
2022-10-18T21:35:22.922Z,10.52
2022-10-18T21:37:51.747Z,10.53
2022-10-18T21:40:19.907Z,10.49
2022-10-18T21:42:47.762Z,10.48
2022-10-18T21:45:16.170Z,10.50
2022-10-18T21:47:48.836Z,10.45
2022-10-18T21:50:17.116Z,10.37
2022-10-18T21:52:46.184Z,10.42
2022-10-18T21:55:14.009Z,10.42
2022-10-18T21:57:45.439Z,10.34
2022-10-18T22:00:17.688Z,10.42
2022-10-18T22:02:47.404Z,10.42
2022-10-18T22:05:16.036Z,10.36
2022-10-18T22:07:48.416Z,10.30
2022-10-18T22:10:18.791Z,10.43
2022-10-18T22:12:49.132Z,10.41
2022-10-18T22:15:18.614Z,10.43
2022-10-18T22:17:50.890Z,10.45
2022-10-18T22:20:20.031Z,10.36
2022-10-18T22:22:54.238Z,10.32
2022-10-18T22:25:23.249Z,10.28
2022-10-18T22:27:52.008Z,10.39
2022-10-18T22:30:20.865Z,10.41
2022-10-18T22:32:49.927Z,10.36
2022-10-18T22:35:18.036Z,10.31
2022-10-18T22:37:49.531Z,10.32
2022-10-18T22:40:19.289Z,10.30
2022-10-18T22:42:48.385Z,10.30
2022-10-18T22:45:19.817Z,10.18
2022-10-18T22:47:49.262Z,10.20
2022-10-18T22:50:19.109Z,10.25
2022-10-18T22:52:50.503Z,10.09
2022-10-18T22:55:21.016Z,10.12
2022-10-18T22:57:49.964Z,10.10
2022-10-18T23:09:05.930Z,9.62
2022-10-18T23:11:35.284Z,9.69
2022-10-18T23:14:07.298Z,9.67
2022-10-18T23:16:36.909Z,9.66
2022-10-18T23:19:05.327Z,9.70
2022-10-18T23:21:35.260Z,9.76
2022-10-18T23:24:03.648Z,9.73
2022-10-18T23:26:32.235Z,9.80
2022-10-18T23:29:00.338Z,9.73
2022-10-18T23:31:32.121Z,9.63
2022-10-18T23:34:03.001Z,9.56
2022-10-18T23:36:32.460Z,9.66
2022-10-18T23:39:01.132Z,9.73
2022-10-18T23:41:29.189Z,9.63
2022-10-18T23:43:56.778Z,9.60
2022-10-18T23:46:25.191Z,9.66
2022-10-18T23:48:52.750Z,9.64
2022-10-18T23:51:20.659Z,9.59
2022-10-18T23:53:48.638Z,9.68
2022-10-18T23:56:17.261Z,9.56
2022-10-18T23:58:45.602Z,9.62
